createdAt,value
2019-05-18T00:01:53.435Z,41.00
2019-05-18T00:04:26.150Z,40.33
2019-05-18T00:06:59.333Z,40.67
2019-05-18T00:09:32.009Z,37.97
2019-05-18T00:12:04.850Z,38.20
2019-05-18T00:14:37.480Z,38.53
2019-05-18T00:17:24.404Z,38.10
2019-05-18T00:19:44.600Z,39.40
2019-05-18T00:22:17.370Z,37.40
2019-05-18T00:24:51.212Z,39.50
2019-05-18T00:27:23.850Z,39.53
2019-05-18T00:29:56.536Z,39.93
2019-05-18T00:32:29.331Z,39.57
2019-05-18T00:35:01.981Z,42.40
2019-05-18T00:37:34.970Z,43.07
2019-05-18T00:40:09.846Z,55.97
2019-05-18T00:42:42.430Z,83.60
2019-05-18T00:45:15.384Z,41.63
2019-05-18T00:47:48.115Z,38.63
2019-05-18T00:50:21.111Z,39.90
2019-05-18T00:52:53.832Z,37.40
2019-05-18T00:55:26.595Z,37.90
2019-05-18T00:57:59.500Z,38.77
2019-05-18T01:00:32.571Z,38.37
2019-05-18T01:03:05.476Z,38.27
2019-05-18T01:05:38.404Z,38.50
2019-05-18T01:08:11.426Z,41.53
2019-05-18T01:10:44.910Z,40.60
2019-05-18T01:13:17.546Z,38.63
2019-05-18T01:15:50.186Z,38.60
2019-05-18T01:18:23.060Z,38.73
2019-05-18T01:20:55.740Z,38.20
2019-05-18T01:23:28.690Z,38.63
2019-05-18T01:26:02.522Z,37.90
2019-05-18T01:28:35.056Z,36.03
2019-05-18T01:31:07.900Z,38.13
2019-05-18T01:33:40.650Z,37.27
2019-05-18T01:36:13.545Z,36.23
2019-05-18T01:38:46.246Z,35.77
2019-05-18T01:41:18.800Z,38.57
2019-05-18T01:43:51.470Z,37.17
2019-05-18T01:46:24.042Z,39.77
2019-05-18T01:48:56.910Z,39.37
2019-05-18T01:51:29.525Z,37.63
2019-05-18T01:54:02.512Z,40.00
2019-05-18T01:56:35.135Z,39.30
2019-05-18T01:59:07.880Z,38.90
2019-05-18T02:01:40.471Z,39.23
2019-05-18T02:04:14.095Z,39.03
2019-05-18T02:06:46.730Z,38.37
2019-05-18T02:09:19.747Z,37.77
2019-05-18T02:11:52.387Z,37.93
2019-05-18T02:14:25.065Z,36.57
2019-05-18T02:16:57.790Z,34.67
2019-05-18T02:19:30.530Z,35.90
2019-05-18T02:22:03.120Z,35.23
2019-05-18T02:24:36.021Z,36.53
2019-05-18T02:27:08.785Z,36.40
2019-05-18T02:29:41.670Z,35.50
2019-05-18T02:32:14.231Z,36.47
2019-05-18T02:34:47.093Z,36.33
2019-05-18T02:37:19.653Z,36.77
2019-05-18T02:39:53.907Z,35.03
2019-05-18T02:42:30.551Z,37.17
2019-05-18T02:45:01.035Z,35.53
2019-05-18T02:47:33.731Z,37.97
2019-05-18T02:50:08.879Z,36.17
2019-05-18T02:52:41.542Z,35.47
2019-05-18T02:55:15.450Z,35.67
2019-05-18T02:57:48.102Z,35.77
2019-05-18T03:00:20.962Z,35.80
2019-05-18T03:02:53.565Z,35.73
2019-05-18T03:05:26.536Z,33.77
2019-05-18T03:07:59.333Z,33.80
2019-05-18T03:10:32.591Z,34.30
2019-05-18T03:13:05.681Z,37.00
2019-05-18T03:15:39.296Z,41.33
2019-05-18T03:18:11.988Z,41.63
2019-05-18T03:20:44.862Z,38.97
2019-05-18T03:23:17.867Z,36.77
2019-05-18T03:25:51.010Z,36.57
2019-05-18T03:28:23.845Z,34.23
2019-05-18T03:30:56.572Z,34.00
2019-05-18T03:33:30.461Z,34.27
2019-05-18T03:36:03.583Z,34.37
2019-05-18T03:38:36.307Z,34.53
2019-05-18T03:41:09.071Z,35.27
2019-05-18T03:43:41.845Z,34.60
2019-05-18T03:46:14.871Z,40.13
2019-05-18T03:48:47.707Z,36.47
2019-05-18T03:51:20.282Z,36.53
2019-05-18T03:53:53.013Z,34.63
2019-05-18T03:56:25.627Z,33.97
2019-05-18T03:58:58.271Z,34.33
2019-05-18T04:01:31.183Z,36.47
2019-05-18T04:04:03.913Z,38.27
2019-05-18T04:06:36.920Z,42.20
2019-05-18T04:09:09.877Z,40.83
2019-05-18T04:11:42.442Z,44.57
2019-05-18T04:14:14.842Z,54.30
2019-05-18T04:16:47.632Z,59.50
2019-05-18T04:19:20.440Z,81.73
2019-05-18T04:21:53.330Z,43.33
2019-05-18T04:24:27.321Z,35.40
2019-05-18T04:27:00.265Z,34.57
2019-05-18T04:29:33.137Z,34.83
2019-05-18T04:32:05.782Z,34.00
2019-05-18T04:34:38.430Z,35.23
2019-05-18T04:37:11.381Z,34.13
2019-05-18T04:39:44.180Z,36.77
2019-05-18T04:42:17.137Z,38.77
2019-05-18T04:44:49.866Z,33.30
2019-05-18T04:47:22.727Z,31.93
2019-05-18T04:50:05.260Z,33.77
2019-05-18T04:52:30.179Z,30.47
2019-05-18T04:55:02.808Z,32.27
2019-05-18T04:57:35.592Z,31.27
2019-05-18T05:00:10.100Z,31.87
2019-05-18T05:02:42.788Z,29.90
2019-05-18T05:05:15.573Z,30.83
2019-05-18T05:07:48.301Z,30.90
2019-05-18T05:10:21.140Z,30.43
2019-05-18T05:12:53.770Z,30.03
2019-05-18T05:15:26.390Z,37.20
2019-05-18T05:17:59.141Z,31.90
2019-05-18T05:20:31.715Z,27.37
2019-05-18T05:23:04.352Z,26.93
2019-05-18T05:25:37.120Z,28.47
2019-05-18T05:28:09.770Z,25.27
2019-05-18T05:30:42.772Z,27.60
2019-05-18T05:33:15.283Z,25.27
2019-05-18T05:35:48.055Z,23.92
2019-05-18T05:38:20.926Z,24.70
2019-05-18T05:40:53.717Z,24.20
2019-05-18T05:43:27.145Z,23.60
2019-05-18T05:45:59.877Z,23.55
2019-05-18T05:48:32.320Z,23.15
2019-05-18T05:51:05.110Z,24.50
2019-05-18T05:53:37.566Z,23.18
2019-05-18T05:56:10.066Z,23.75
2019-05-18T05:58:42.486Z,22.75
2019-05-18T06:01:15.276Z,24.02
2019-05-18T06:03:48.882Z,21.87
2019-05-18T06:06:23.160Z,24.37
2019-05-18T06:08:56.104Z,23.32
2019-05-18T06:11:28.722Z,21.65
2019-05-18T06:14:01.391Z,23.20
2019-05-18T06:16:34.171Z,22.37
2019-05-18T06:19:07.015Z,20.62
2019-05-18T06:21:39.520Z,21.55
2019-05-18T06:24:12.311Z,21.73
2019-05-18T06:26:44.940Z,21.15
2019-05-18T06:29:17.730Z,22.20
2019-05-18T06:31:50.599Z,19.35
2019-05-18T06:34:23.436Z,20.68
2019-05-18T06:36:56.154Z,21.60
2019-05-18T06:39:28.917Z,20.77
2019-05-18T06:42:01.683Z,20.15
2019-05-18T06:44:34.728Z,18.87
2019-05-18T06:47:07.575Z,17.27
2019-05-18T06:49:40.492Z,22.10
2019-05-18T06:52:13.305Z,17.75
2019-05-18T06:54:45.895Z,19.00
2019-05-18T06:57:19.085Z,17.40
2019-05-18T06:59:51.942Z,18.82
2019-05-18T07:02:24.650Z,18.07
2019-05-18T07:04:57.430Z,17.73
2019-05-18T07:07:30.131Z,17.00
2019-05-18T07:10:02.869Z,17.45
2019-05-18T07:12:35.817Z,17.65
2019-05-18T07:15:10.520Z,16.85
2019-05-18T07:17:43.000Z,17.73
2019-05-18T07:20:17.416Z,18.07
2019-05-18T07:22:49.910Z,17.48
2019-05-18T07:25:23.732Z,18.57
2019-05-18T07:27:56.415Z,17.00
2019-05-18T07:30:29.284Z,19.20
2019-05-18T07:33:02.051Z,17.90
2019-05-18T07:35:35.093Z,18.20
2019-05-18T07:38:07.540Z,18.27
2019-05-18T07:40:40.230Z,16.62
2019-05-18T07:43:12.720Z,15.68
2019-05-18T07:45:45.740Z,17.50
2019-05-18T07:48:18.506Z,16.52
2019-05-18T07:50:51.190Z,15.65
2019-05-18T07:53:23.867Z,16.87
2019-05-18T07:55:56.747Z,17.70
2019-05-18T07:58:29.736Z,16.60
2019-05-18T08:01:02.512Z,18.20
2019-05-18T08:03:35.205Z,18.27
2019-05-18T08:06:07.967Z,16.23
2019-05-18T08:08:41.805Z,14.00
2019-05-18T08:11:14.740Z,14.60
2019-05-18T08:13:47.565Z,14.80
2019-05-18T08:16:20.322Z,14.38
2019-05-18T08:18:52.952Z,15.03
2019-05-18T08:21:25.557Z,14.35
2019-05-18T08:23:58.558Z,15.68
2019-05-18T08:26:31.776Z,14.13
2019-05-18T08:29:04.566Z,14.25
2019-05-18T08:31:37.383Z,14.30
2019-05-18T08:34:10.005Z,14.68
2019-05-18T08:36:42.980Z,15.93
2019-05-18T08:39:15.876Z,15.23
2019-05-18T08:41:48.997Z,13.70
2019-05-18T08:44:22.245Z,13.58
2019-05-18T08:46:54.820Z,13.68
2019-05-18T08:49:27.345Z,12.30
2019-05-18T08:52:08.480Z,13.85
2019-05-18T08:54:34.785Z,14.18
2019-05-18T08:57:07.665Z,13.62
2019-05-18T08:59:40.671Z,14.45
2019-05-18T09:02:13.842Z,12.73
2019-05-18T09:04:46.406Z,13.95
2019-05-18T09:07:19.071Z,13.75
2019-05-18T09:09:52.038Z,12.23
2019-05-18T09:12:24.680Z,11.83
2019-05-18T09:14:57.286Z,11.80
2019-05-18T09:17:30.236Z,12.00
2019-05-18T09:20:03.385Z,10.75
2019-05-18T09:22:37.542Z,12.05
2019-05-18T09:25:10.846Z,12.85
2019-05-18T09:27:43.691Z,12.73
2019-05-18T09:30:16.927Z,11.70
2019-05-18T09:32:49.610Z,12.90
2019-05-18T09:35:22.831Z,12.75
2019-05-18T09:37:56.392Z,12.18
2019-05-18T09:40:29.131Z,13.08
2019-05-18T09:43:01.797Z,12.58
2019-05-18T09:45:34.622Z,12.07
2019-05-18T09:48:07.460Z,10.30
2019-05-18T09:50:40.135Z,11.53
2019-05-18T09:53:13.192Z,10.98
2019-05-18T09:55:46.095Z,10.10
2019-05-18T09:58:18.891Z,9.83
2019-05-18T10:00:51.858Z,11.05
2019-05-18T10:03:24.732Z,10.10
2019-05-18T10:05:57.455Z,9.75
2019-05-18T10:08:30.117Z,10.13
2019-05-18T10:11:03.105Z,9.33
2019-05-18T10:13:35.754Z,8.90
2019-05-18T10:16:08.727Z,9.48
2019-05-18T10:18:41.329Z,9.20
2019-05-18T10:21:14.352Z,10.03
2019-05-18T10:23:47.090Z,8.68
2019-05-18T10:26:19.959Z,9.73
2019-05-18T10:28:52.630Z,9.35
2019-05-18T10:31:25.386Z,10.35
2019-05-18T10:33:58.066Z,10.78
2019-05-18T10:36:30.824Z,10.72
2019-05-18T10:39:04.201Z,10.48
2019-05-18T10:41:37.025Z,9.95
2019-05-18T10:44:09.900Z,11.73
2019-05-18T10:46:43.091Z,10.55
2019-05-18T10:49:15.895Z,12.50
2019-05-18T10:51:48.610Z,12.20
2019-05-18T10:54:21.106Z,13.60
2019-05-18T10:56:54.010Z,12.60
2019-05-18T10:59:26.775Z,12.63
2019-05-18T11:01:59.630Z,12.98
2019-05-18T11:04:32.516Z,11.93
2019-05-18T11:07:05.500Z,13.15
2019-05-18T11:09:38.705Z,14.30
2019-05-18T11:12:11.630Z,13.72
2019-05-18T11:14:44.417Z,13.30
2019-05-18T11:17:17.257Z,12.95
2019-05-18T11:19:50.166Z,13.78
2019-05-18T11:22:23.113Z,12.18
2019-05-18T11:24:55.945Z,12.20
2019-05-18T11:27:28.690Z,12.23
2019-05-18T11:30:01.474Z,11.08
2019-05-18T11:32:34.340Z,10.50
2019-05-18T11:35:08.942Z,11.93
2019-05-18T11:37:41.545Z,11.57
2019-05-18T11:40:14.783Z,10.60
2019-05-18T11:42:47.669Z,10.15
2019-05-18T11:45:20.813Z,9.90
2019-05-18T11:47:53.856Z,9.05
2019-05-18T11:50:26.927Z,8.98
2019-05-18T11:53:00.290Z,9.83
2019-05-18T11:55:33.442Z,8.98
2019-05-18T11:58:06.395Z,9.10
2019-05-18T12:00:39.016Z,7.80
2019-05-18T12:03:11.877Z,7.20
2019-05-18T12:05:44.952Z,7.17
2019-05-18T12:08:17.953Z,7.47
2019-05-18T12:10:52.218Z,7.30
2019-05-18T12:13:25.210Z,6.83
2019-05-18T12:15:58.086Z,6.87
2019-05-18T12:18:30.859Z,6.58
2019-05-18T12:21:03.745Z,6.35
2019-05-18T12:23:36.773Z,7.10
2019-05-18T12:26:09.535Z,6.28
2019-05-18T12:28:42.306Z,6.78
2019-05-18T12:31:15.316Z,5.90
2019-05-18T12:33:49.346Z,5.45
2019-05-18T12:36:22.011Z,7.50
2019-05-18T12:38:54.875Z,6.60
2019-05-18T12:41:30.856Z,11.63
2019-05-18T12:44:03.871Z,43.85
2019-05-18T12:46:36.727Z,44.05
2019-05-18T12:49:09.590Z,10.10
2019-05-18T12:51:42.000Z,6.70
2019-05-18T12:54:28.781Z,40.88
2019-05-18T12:56:49.962Z,8.25
2019-05-18T12:59:22.746Z,6.90
2019-05-18T13:01:56.685Z,5.53
2019-05-18T13:04:29.635Z,5.62
2019-05-18T13:07:02.985Z,6.85
2019-05-18T13:09:35.587Z,5.53
2019-05-18T13:12:11.687Z,6.42
2019-05-18T13:14:43.091Z,6.17
2019-05-18T13:17:16.005Z,13.72
2019-05-18T13:19:48.867Z,7.33
2019-05-18T13:22:21.732Z,7.45
2019-05-18T13:24:55.077Z,6.83
2019-05-18T13:27:38.802Z,5.60
2019-05-18T13:30:02.708Z,5.65
2019-05-18T13:32:35.872Z,4.67
2019-05-18T13:35:10.341Z,4.67
2019-05-18T13:37:43.325Z,5.20
2019-05-18T13:40:19.468Z,15.70
2019-05-18T13:42:52.340Z,17.02
2019-05-18T13:45:25.254Z,8.25
2019-05-18T13:47:58.040Z,6.72
2019-05-18T13:50:30.975Z,11.03
2019-05-18T13:53:03.711Z,5.58
2019-05-18T13:55:36.661Z,6.33
2019-05-18T13:58:09.415Z,4.17
2019-05-18T14:00:42.490Z,5.65
2019-05-18T14:03:15.338Z,7.10
2019-05-18T14:05:47.990Z,8.60
2019-05-18T14:08:20.665Z,4.08
2019-05-18T14:10:53.645Z,6.53
2019-05-18T14:13:26.440Z,7.08
2019-05-18T14:15:59.410Z,8.80
2019-05-18T14:18:32.341Z,10.65
2019-05-18T14:21:05.146Z,8.25
2019-05-18T14:23:37.550Z,14.75
2019-05-18T14:26:10.345Z,5.47
2019-05-18T14:28:43.112Z,13.20
2019-05-18T14:31:15.925Z,12.18
2019-05-18T14:33:48.510Z,11.97
2019-05-18T14:36:21.442Z,7.08
2019-05-18T14:38:56.853Z,5.72
2019-05-18T14:41:28.653Z,5.22
2019-05-18T14:44:01.361Z,6.22
2019-05-18T14:46:34.560Z,5.75
2019-05-18T14:49:09.060Z,8.08
2019-05-18T14:51:41.866Z,12.25
2019-05-18T14:54:14.622Z,9.80
2019-05-18T14:56:48.426Z,14.53
2019-05-18T14:59:21.615Z,12.75
2019-05-18T15:01:55.387Z,11.85
2019-05-18T15:04:28.311Z,46.60
2019-05-18T15:07:01.266Z,15.10
2019-05-18T15:09:34.101Z,9.40
2019-05-18T15:12:06.871Z,9.03
2019-05-18T15:14:39.671Z,7.40
2019-05-18T15:17:12.378Z,11.25
2019-05-18T15:19:45.189Z,6.65
2019-05-18T15:22:17.966Z,5.20
2019-05-18T15:24:50.995Z,6.15
2019-05-18T15:27:23.757Z,6.75
2019-05-18T15:29:56.585Z,4.87
2019-05-18T15:32:29.345Z,4.72
2019-05-18T15:35:01.948Z,4.20
2019-05-18T15:37:34.640Z,4.37
2019-05-18T15:40:08.905Z,4.40
2019-05-18T15:42:41.650Z,4.53
2019-05-18T15:45:14.419Z,4.85
2019-05-18T15:47:47.160Z,4.67
2019-05-18T15:50:20.366Z,4.85
2019-05-18T15:52:53.245Z,4.87
2019-05-18T15:55:25.875Z,4.65
2019-05-18T15:57:59.167Z,4.70
2019-05-18T16:00:32.050Z,4.75
2019-05-18T16:03:04.750Z,4.78
2019-05-18T16:05:37.620Z,4.75
2019-05-18T16:08:10.392Z,5.58
2019-05-18T16:10:43.399Z,6.72
2019-05-18T16:13:16.160Z,6.97
2019-05-18T16:15:48.855Z,6.95
2019-05-18T16:18:21.605Z,4.80
2019-05-18T16:20:54.541Z,3.92
2019-05-18T16:23:27.235Z,4.35
2019-05-18T16:26:00.165Z,4.53
2019-05-18T16:28:33.775Z,4.50
2019-05-18T16:31:06.756Z,4.35
2019-05-18T16:33:39.415Z,5.00
2019-05-18T16:36:12.097Z,4.42
2019-05-18T16:38:44.780Z,4.50
2019-05-18T16:41:17.590Z,5.22
2019-05-18T16:43:51.008Z,5.30
2019-05-18T16:46:24.171Z,7.70
2019-05-18T16:48:56.776Z,5.28
2019-05-18T16:51:29.405Z,5.20
2019-05-18T16:54:02.361Z,8.45
2019-05-18T16:56:35.543Z,7.62
2019-05-18T16:59:08.380Z,7.65
2019-05-18T17:01:41.066Z,4.37
2019-05-18T17:04:13.685Z,4.87
2019-05-18T17:06:46.088Z,7.55
2019-05-18T17:09:18.761Z,16.90
2019-05-18T17:11:51.470Z,11.48
2019-05-18T17:14:24.120Z,9.25
2019-05-18T17:16:56.996Z,5.70
2019-05-18T17:19:29.757Z,5.95
2019-05-18T17:22:02.573Z,14.58
2019-05-18T17:24:36.546Z,10.65
2019-05-18T17:27:09.223Z,7.00
2019-05-18T17:29:42.105Z,7.20
2019-05-18T17:32:14.681Z,6.42
2019-05-18T17:34:47.265Z,7.55
2019-05-18T17:37:20.000Z,6.95
2019-05-18T17:39:52.690Z,5.40
2019-05-18T17:42:25.586Z,5.55
2019-05-18T17:44:58.310Z,5.05
2019-05-18T17:47:32.076Z,7.22
2019-05-18T17:50:07.027Z,7.50
2019-05-18T17:52:39.987Z,7.90
2019-05-18T17:55:16.380Z,11.90
2019-05-18T17:57:47.594Z,14.13
2019-05-18T18:00:21.080Z,14.90
2019-05-18T18:02:54.265Z,18.90
2019-05-18T18:05:27.240Z,25.82
2019-05-18T18:07:59.930Z,23.25
2019-05-18T18:10:32.840Z,14.40
2019-05-18T18:13:05.616Z,8.53
2019-05-18T18:15:39.155Z,8.45
2019-05-18T18:18:11.847Z,8.38
2019-05-18T18:20:44.726Z,8.25
2019-05-18T18:23:17.765Z,7.95
2019-05-18T18:25:51.471Z,8.25
2019-05-18T18:28:24.160Z,11.35
2019-05-18T18:30:57.041Z,10.13
2019-05-18T18:33:29.941Z,6.42
2019-05-18T18:36:02.630Z,6.22
2019-05-18T18:38:35.495Z,5.72
2019-05-18T18:41:08.326Z,6.72
2019-05-18T18:43:40.850Z,6.92
2019-05-18T18:46:13.343Z,7.95
2019-05-18T18:48:46.226Z,8.55
2019-05-18T18:51:19.036Z,12.45
2019-05-18T18:53:51.685Z,12.78
2019-05-18T18:56:24.376Z,21.40
2019-05-18T18:58:58.037Z,30.00
2019-05-18T19:01:31.093Z,24.85
2019-05-18T19:04:04.150Z,24.27
2019-05-18T19:06:36.924Z,13.53
2019-05-18T19:09:09.576Z,22.22
2019-05-18T19:11:42.216Z,32.63
2019-05-18T19:14:15.157Z,37.80
2019-05-18T19:16:48.157Z,33.65
2019-05-18T19:19:21.190Z,21.62
2019-05-18T19:21:54.113Z,21.07
2019-05-18T19:24:27.170Z,20.00
2019-05-18T19:27:00.065Z,26.65
2019-05-18T19:29:32.681Z,25.20
2019-05-18T19:32:05.527Z,39.90
2019-05-18T19:34:38.375Z,25.37
2019-05-18T19:37:11.316Z,21.10
2019-05-18T19:39:44.239Z,20.55
2019-05-18T19:42:18.097Z,16.67
2019-05-18T19:44:51.151Z,14.68
2019-05-18T19:47:24.197Z,15.68
2019-05-18T19:49:56.945Z,15.48
2019-05-18T19:52:30.000Z,17.77
2019-05-18T19:55:04.627Z,20.85
2019-05-18T19:57:37.515Z,20.27
2019-05-18T20:00:11.155Z,19.03
2019-05-18T20:02:44.680Z,18.57
2019-05-18T20:05:17.590Z,18.43
2019-05-18T20:07:50.295Z,29.43
2019-05-18T20:10:23.311Z,24.40
2019-05-18T20:12:56.331Z,25.37
2019-05-18T20:15:29.170Z,25.40
2019-05-18T20:18:02.049Z,19.27
2019-05-18T20:20:35.286Z,20.20
2019-05-18T20:23:08.793Z,17.90
2019-05-18T20:25:41.396Z,19.60
2019-05-18T20:28:23.334Z,19.73
2019-05-18T20:30:48.877Z,19.97
2019-05-18T20:33:21.891Z,20.23
2019-05-18T20:35:55.219Z,20.87
2019-05-18T20:38:27.965Z,21.20
2019-05-18T20:41:01.221Z,24.67
2019-05-18T20:43:33.980Z,27.80
2019-05-18T20:46:07.117Z,26.40
2019-05-18T20:48:39.790Z,22.93
2019-05-18T20:51:12.627Z,23.87
2019-05-18T20:53:45.626Z,21.90
2019-05-18T20:56:18.968Z,20.57
2019-05-18T20:58:51.757Z,18.73
2019-05-18T21:01:24.525Z,19.77
2019-05-18T21:03:57.439Z,19.97
2019-05-18T21:06:30.251Z,18.90
2019-05-18T21:09:04.647Z,20.97
2019-05-18T21:11:38.398Z,18.87
2019-05-18T21:14:11.231Z,20.87
2019-05-18T21:16:44.108Z,20.37
2019-05-18T21:19:17.319Z,22.07
2019-05-18T21:21:50.300Z,21.47
2019-05-18T21:24:22.946Z,21.27
2019-05-18T21:26:55.565Z,20.70
2019-05-18T21:29:28.287Z,19.90
2019-05-18T21:32:00.615Z,20.50
2019-05-18T21:34:33.595Z,17.20
2019-05-18T21:37:06.371Z,18.63
2019-05-18T21:39:39.141Z,21.10
2019-05-18T21:42:12.991Z,19.30
2019-05-18T21:44:45.695Z,17.87
2019-05-18T21:47:18.334Z,18.07
2019-05-18T21:49:50.921Z,18.93
2019-05-18T21:52:23.465Z,19.30
2019-05-18T21:54:56.105Z,17.87
2019-05-18T21:57:29.015Z,16.23
2019-05-18T22:00:02.241Z,16.90
2019-05-18T22:02:36.816Z,18.47
2019-05-18T22:05:09.680Z,18.57
2019-05-18T22:07:42.501Z,18.80
2019-05-18T22:10:25.453Z,18.43
2019-05-18T22:12:49.935Z,18.90
2019-05-18T22:15:22.684Z,19.03
2019-05-18T22:18:04.601Z,20.73
2019-05-18T22:20:43.528Z,21.20
2019-05-18T22:23:12.236Z,18.30
2019-05-18T22:25:44.915Z,18.27
2019-05-18T22:28:17.585Z,19.27
2019-05-18T22:30:50.225Z,18.70
2019-05-18T22:33:23.226Z,16.97
2019-05-18T22:35:55.900Z,18.37
2019-05-18T22:38:28.546Z,20.30
2019-05-18T22:41:01.380Z,21.00
2019-05-18T22:43:35.215Z,21.23
2019-05-18T22:46:08.180Z,20.50
2019-05-18T22:48:41.838Z,19.33
2019-05-18T22:51:14.763Z,19.57
2019-05-18T22:53:47.315Z,19.23
2019-05-18T22:56:20.073Z,21.67
2019-05-18T22:58:52.824Z,20.27
2019-05-18T23:01:25.665Z,22.33
2019-05-18T23:03:58.470Z,19.80
2019-05-18T23:06:31.236Z,19.37
2019-05-18T23:09:05.135Z,20.53
2019-05-18T23:11:37.928Z,20.40
2019-05-18T23:14:10.611Z,22.13
2019-05-18T23:16:43.250Z,20.43
2019-05-18T23:19:15.871Z,20.27
2019-05-18T23:21:48.759Z,22.23
2019-05-18T23:24:21.447Z,20.27
2019-05-18T23:26:54.391Z,20.57
2019-05-18T23:29:26.995Z,20.50
2019-05-18T23:31:59.855Z,19.37
2019-05-18T23:34:32.591Z,20.97
2019-05-18T23:37:05.245Z,20.53
2019-05-18T23:39:37.811Z,20.60
2019-05-18T23:42:10.597Z,19.27
2019-05-18T23:44:43.190Z,21.07
2019-05-18T23:47:16.060Z,21.40
2019-05-18T23:49:48.774Z,21.40
2019-05-18T23:52:21.495Z,21.70
2019-05-18T23:54:54.203Z,20.43
2019-05-18T23:57:26.966Z,20.10
2019-05-18T23:59:59.659Z,20.90
